Time;durP1;ratioP1;P1;durP2;ratioP2;P2;SDS_P1;SDS_P2;PMS_P1;PMS_P2;Temp;Humidity;BMP_temperature;BMP_pressure;BME280_temperature;BME280_humidity;BME280_pressure;Samples;Min_cycle;Max_cycle;Signal;HPM_P1;HPM_P2
2022/09/08 00:00:54;;;;;;;12.43;8.02;;;17.00;99.90;;;;;;5115391;28;20440;-71
2022/09/08 00:03:23;;;;;;;10.00;8.10;;;17.00;99.90;;;;;;5133253;28;20391;-71
2022/09/08 00:05:55;;;;;;;13.93;8.20;;;17.00;99.90;;;;;;5115830;28;20047;-71
2022/09/08 00:08:23;;;;;;;13.88;8.68;;;16.90;99.90;;;;;;5115393;28;20133;-71
2022/09/08 00:10:53;;;;;;;13.50;8.80;;;16.90;99.90;;;;;;5133283;28;20343;-71
2022/09/08 00:13:21;;;;;;;11.48;8.65;;;16.90;99.90;;;;;;5134105;28;20108;-70
2022/09/08 00:15:48;;;;;;;11.80;8.55;;;16.90;99.90;;;;;;5115124;28;20097;-70
2022/09/08 00:18:15;;;;;;;11.48;9.80;;;16.90;99.90;;;;;;5114664;28;20054;-71
2022/09/08 00:20:42;;;;;;;13.98;10.75;;;16.90;99.90;;;;;;5115606;28;20395;-71
2022/09/08 00:23:09;;;;;;;18.60;10.02;;;16.90;99.90;;;;;;5115258;28;20051;-71
2022/09/08 00:25:36;;;;;;;16.55;10.57;;;16.90;99.90;;;;;;5114819;28;20054;-71
2022/09/08 00:28:04;;;;;;;16.55;10.48;;;16.90;99.90;;;;;;5133483;28;20082;-71
2022/09/08 00:30:31;;;;;;;15.05;11.05;;;16.80;99.90;;;;;;5133306;28;20051;-71
2022/09/08 00:32:58;;;;;;;14.40;11.55;;;16.80;99.90;;;;;;5114808;27;20054;-71
2022/09/08 00:35:25;;;;;;;14.25;11.75;;;16.90;99.90;;;;;;5119010;27;20051;-70
2022/09/08 00:37:53;;;;;;;14.00;11.43;;;16.80;99.90;;;;;;5118560;27;20103;-71
2022/09/08 00:40:21;;;;;;;16.15;12.00;;;16.80;99.90;;;;;;5137529;27;20086;-71
2022/09/08 00:42:48;;;;;;;14.52;12.07;;;16.80;99.90;;;;;;5137257;27;20043;-70
2022/09/08 00:45:17;;;;;;;16.95;12.65;;;16.80;99.90;;;;;;5118562;27;20046;-70
2022/09/08 00:47:54;;;;;;;17.02;11.82;;;16.80;99.90;;;;;;5119273;27;20082;-70
2022/09/08 00:50:24;;;;;;;16.73;11.40;;;16.80;99.90;;;;;;5137304;27;20437;-70
2022/09/08 00:53:00;;;;;;;14.07;12.27;;;16.80;99.90;;;;;;5136702;27;20043;-70
2022/09/08 00:55:29;;;;;;;16.48;12.30;;;16.70;99.90;;;;;;5137337;27;20100;-71
2022/09/08 00:57:56;;;;;;;16.92;13.73;;;16.70;99.90;;;;;;5137041;27;20096;-70
2022/09/08 01:00:25;;;;;;;15.90;13.65;;;16.70;99.90;;;;;;5136528;27;20047;-70
2022/09/08 01:02:52;;;;;;;17.13;13.75;;;16.80;99.90;;;;;;5137244;27;20055;-70
2022/09/08 01:05:21;;;;;;;22.00;15.65;;;16.80;99.90;;;;;;5136916;27;20047;-70
2022/09/08 01:13:43;;;;;;;20.02;15.65;;;16.70;99.90;;;;;;5136468;27;20130;-70
2022/09/08 01:16:12;;;;;;;23.08;16.77;;;16.70;99.90;;;;;;5137133;27;20047;-71
2022/09/08 01:18:39;;;;;;;19.80;16.17;;;16.70;99.90;;;;;;5118307;27;20398;-71
2022/09/08 01:21:28;;;;;;;23.65;17.17;;;16.70;99.90;;;;;;5117918;27;20055;-71
2022/09/08 01:24:19;;;;;;;24.75;17.88;;;16.70;99.90;;;;;;5136928;27;20107;-71
2022/09/08 01:26:50;;;;;;;24.23;18.25;;;16.70;99.90;;;;;;5118087;27;20512;-71
2022/09/08 01:29:20;;;;;;;25.25;18.73;;;16.70;99.90;;;;;;5117243;27;20047;-70
2022/09/08 01:31:50;;;;;;;22.90;18.40;;;16.70;99.90;;;;;;5116835;27;20096;-71
2022/09/08 01:34:17;;;;;;;23.33;18.63;;;16.70;99.90;;;;;;5135198;27;20108;-71
2022/09/08 01:36:44;;;;;;;21.20;17.85;;;16.80;99.90;;;;;;5136459;27;20551;-71
2022/09/08 01:39:11;;;;;;;25.67;19.92;;;16.80;99.90;;;;;;5136139;27;20043;-71
2022/09/08 01:41:37;;;;;;;24.58;19.25;;;16.80;99.90;;;;;;5117340;27;20073;-70
2022/09/08 01:44:04;;;;;;;25.88;20.63;;;16.80;99.90;;;;;;5136305;27;20127;-70
2022/09/08 01:46:33;;;;;;;29.90;21.58;;;16.80;99.90;;;;;;5116834;27;20054;-70
2022/09/08 01:49:00;;;;;;;26.45;20.88;;;16.80;99.90;;;;;;5135733;27;20092;-70
2022/09/08 01:51:26;;;;;;;25.83;20.88;;;16.90;99.90;;;;;;5117930;27;20065;-70
2022/09/08 01:53:53;;;;;;;28.08;21.15;;;16.90;99.90;;;;;;5117614;27;20406;-70
2022/09/08 01:56:21;;;;;;;27.40;21.27;;;16.90;99.90;;;;;;5135686;27;20112;-70
2022/09/08 01:58:47;;;;;;;25.45;20.17;;;16.90;99.90;;;;;;5117945;27;20524;-70
2022/09/08 02:01:14;;;;;;;28.20;21.67;;;17.00;99.90;;;;;;5117554;27;20146;-70
2022/09/08 02:03:43;;;;;;;26.73;21.45;;;17.00;99.90;;;;;;5117299;27;20054;-69
2022/09/08 02:06:10;;;;;;;27.42;20.90;;;17.10;99.90;;;;;;5117910;27;20054;-69
2022/09/08 02:08:37;;;;;;;27.30;21.95;;;17.10;99.90;;;;;;5117430;27;20406;-69
2022/09/08 02:11:04;;;;;;;30.02;23.23;;;17.20;99.90;;;;;;5135037;27;20047;-69
2022/09/08 02:13:32;;;;;;;27.55;22.60;;;17.20;99.90;;;;;;5136109;27;20054;-70
2022/09/08 02:16:00;;;;;;;28.80;21.58;;;17.30;99.90;;;;;;5117202;27;20047;-70
2022/09/08 02:18:30;;;;;;;29.02;23.58;;;17.30;99.90;;;;;;5135338;27;20059;-69
2022/09/08 02:21:08;;;;;;;27.80;22.17;;;17.30;99.90;;;;;;5117080;27;20082;-70
2022/09/08 02:23:36;;;;;;;28.40;23.67;;;17.30;99.90;;;;;;5134977;27;20051;-70
2022/09/08 02:26:04;;;;;;;28.67;22.85;;;17.40;99.90;;;;;;5135418;27;20490;-70
2022/09/08 02:28:30;;;;;;;29.50;23.40;;;17.40;99.90;;;;;;5135068;27;20494;-71
2022/09/08 02:30:59;;;;;;;29.00;22.67;;;17.40;99.90;;;;;;5134610;27;20086;-71
2022/09/08 02:33:27;;;;;;;30.50;24.63;;;17.40;99.90;;;;;;5135452;27;20517;-71
2022/09/08 02:35:54;;;;;;;29.92;24.05;;;17.50;99.90;;;;;;5134975;27;20131;-71
2022/09/08 02:38:23;;;;;;;31.20;23.88;;;17.50;99.90;;;;;;5116663;27;20486;-70
2022/09/08 02:40:50;;;;;;;29.17;23.27;;;17.50;99.90;;;;;;5116529;27;20055;-71
2022/09/08 02:43:17;;;;;;;30.40;23.92;;;17.50;99.90;;;;;;5116653;27;20049;-71
2022/09/08 02:45:46;;;;;;;29.17;24.15;;;17.50;99.90;;;;;;5134693;27;20051;-71
2022/09/08 02:48:13;;;;;;;29.98;25.10;;;17.50;99.90;;;;;;5135256;27;20054;-71
2022/09/08 02:50:40;;;;;;;29.55;24.10;;;17.50;99.90;;;;;;5134544;27;20043;-71
2022/09/08 02:53:07;;;;;;;32.40;24.15;;;17.50;99.90;;;;;;5134595;27;20047;-71
2022/09/08 02:55:38;;;;;;;31.20;24.30;;;17.50;99.90;;;;;;5134973;27;20051;-72
2022/09/08 02:58:06;;;;;;;29.92;24.27;;;17.60;99.90;;;;;;5116141;27;20086;-71
2022/09/08 03:00:34;;;;;;;31.27;24.73;;;17.60;99.90;;;;;;5133986;27;20050;-72
2022/09/08 03:03:01;;;;;;;33.28;24.05;;;17.60;99.90;;;;;;5116303;27;20088;-72
2022/09/08 03:05:28;;;;;;;30.58;25.38;;;17.60;99.90;;;;;;5134639;27;20051;-72
2022/09/08 03:07:55;;;;;;;33.25;25.27;;;17.60;99.90;;;;;;5116809;27;20546;-71
2022/09/08 03:10:23;;;;;;;31.05;25.58;;;17.60;99.90;;;;;;5116163;27;20066;-71
2022/09/08 03:12:52;;;;;;;33.35;25.38;;;17.70;99.90;;;;;;5134143;27;20051;-72
2022/09/08 03:15:19;;;;;;;30.02;25.10;;;17.70;99.90;;;;;;5134619;27;20047;-72
2022/09/08 03:17:46;;;;;;;36.10;25.35;;;17.70;99.90;;;;;;5134346;27;20043;-71
2022/09/08 03:20:14;;;;;;;32.17;25.58;;;17.70;99.90;;;;;;5133956;27;20448;-70
2022/09/08 03:22:41;;;;;;;30.30;24.85;;;17.60;99.90;;;;;;5116302;27;20050;-72
2022/09/08 03:25:09;;;;;;;30.77;24.88;;;17.70;99.90;;;;;;5134190;27;20055;-72
2022/09/08 03:27:36;;;;;;;36.53;27.00;;;17.70;99.90;;;;;;5133611;27;20051;-72
2022/09/08 03:30:06;;;;;;;34.28;26.45;;;17.60;99.90;;;;;;5116016;27;20047;-72
2022/09/08 03:32:33;;;;;;;35.92;26.75;;;17.60;99.90;;;;;;5115813;27;20153;-71
2022/09/08 03:35:00;;;;;;;35.90;27.98;;;17.60;99.90;;;;;;5133794;27;20082;-71
2022/09/08 03:37:27;;;;;;;35.72;27.55;;;17.60;99.90;;;;;;5134396;27;20063;-71
2022/09/08 03:39:54;;;;;;;36.45;26.85;;;17.60;99.90;;;;;;5133855;27;20129;-72
2022/09/08 03:42:22;;;;;;;36.35;27.55;;;17.50;99.90;;;;;;5133582;27;20380;-72
2022/09/08 03:44:48;;;;;;;33.15;26.92;;;17.50;99.90;;;;;;5134015;27;20532;-67
2022/09/08 03:47:17;;;;;;;34.35;27.00;;;17.50;99.90;;;;;;5115758;27;20047;-67
2022/09/08 03:49:44;;;;;;;37.65;28.58;;;17.50;99.90;;;;;;5133210;27;20347;-68
2022/09/08 03:52:10;;;;;;;35.13;28.08;;;17.50;99.90;;;;;;5115578;27;20043;-71
2022/09/08 03:54:51;;;;;;;33.03;27.38;;;17.50;99.90;;;;;;5115857;27;20074;-71
2022/09/08 03:57:22;;;;;;;34.47;28.65;;;17.50;99.90;;;;;;5133966;27;20606;-71
2022/09/08 03:59:49;;;;;;;33.63;27.65;;;17.40;99.90;;;;;;5115121;28;20100;-70
2022/09/08 04:02:18;;;;;;;35.55;28.35;;;17.50;99.90;;;;;;5133375;27;20440;-70
2022/09/08 04:04:48;;;;;;;35.47;28.02;;;17.50;99.90;;;;;;5115668;28;20059;-70
2022/09/08 04:07:16;;;;;;;36.13;29.92;;;17.50;99.90;;;;;;5115531;28;20104;-73
2022/09/08 04:09:43;;;;;;;37.42;29.83;;;17.50;99.90;;;;;;5135797;27;20100;-72
2022/09/08 04:12:11;;;;;;;34.00;27.60;;;17.50;99.90;;;;;;5138041;27;20040;-72
2022/09/08 04:14:38;;;;;;;37.90;31.05;;;17.50;99.90;;;;;;5138180;27;20051;-72
2022/09/08 04:17:05;;;;;;;41.45;29.30;;;17.60;99.90;;;;;;5119336;27;20099;-73
2022/09/08 04:19:34;;;;;;;37.03;29.23;;;17.60;99.90;;;;;;5119826;27;20051;-73
2022/09/08 04:22:01;;;;;;;37.10;28.83;;;17.60;99.90;;;;;;5137714;27;20135;-73
2022/09/08 04:24:28;;;;;;;40.55;30.77;;;17.50;99.90;;;;;;5137180;27;20047;-70
2022/09/08 04:26:55;;;;;;;36.88;30.52;;;17.60;99.90;;;;;;5137668;27;20061;-72
2022/09/08 04:29:22;;;;;;;40.88;31.63;;;17.60;99.90;;;;;;5137822;27;20406;-71
2022/09/08 04:31:49;;;;;;;38.63;30.88;;;17.60;99.90;;;;;;5118950;27;20134;-72
2022/09/08 04:34:17;;;;;;;38.13;30.35;;;17.60;99.90;;;;;;5137729;27;20047;-71
2022/09/08 04:36:46;;;;;;;36.58;28.75;;;17.60;99.90;;;;;;5119511;27;20051;-72
2022/09/08 04:39:16;;;;;;;39.83;30.60;;;17.70;99.90;;;;;;5119112;27;20054;-72
2022/09/08 04:41:43;;;;;;;41.75;31.45;;;17.70;99.90;;;;;;5118447;27;20047;-71
2022/09/08 04:44:11;;;;;;;28.33;21.65;;;17.70;99.90;;;;;;5096543;28;20071;-71
2022/09/08 04:46:38;;;;;;;24.23;19.83;;;18.20;99.90;;;;;;5107224;28;20136;-71
2022/09/08 04:49:06;;;;;;;22.67;16.38;;;18.40;99.90;;;;;;5119283;27;20427;-71
2022/09/08 04:51:33;;;;;;;35.53;28.90;;;18.80;99.90;;;;;;5116144;27;20126;-73
2022/09/08 04:54:03;;;;;;;35.08;27.83;;;19.10;99.90;;;;;;5115806;27;20108;-71
2022/09/08 04:56:31;;;;;;;29.98;23.80;;;19.00;99.90;;;;;;5097549;27;20510;-72
2022/09/08 04:58:59;;;;;;;36.30;29.33;;;19.00;99.90;;;;;;5099259;27;20052;-72
2022/09/08 05:01:29;;;;;;;34.00;27.90;;;18.90;99.90;;;;;;5116060;27;20048;-71
2022/09/08 05:03:59;;;;;;;34.38;28.75;;;19.10;99.90;;;;;;5097411;28;20039;-72
2022/09/08 05:06:26;;;;;;;25.98;22.40;;;19.20;99.90;;;;;;5096078;28;20043;-72
2022/09/08 05:08:56;;;;;;;35.22;28.38;;;19.30;99.90;;;;;;5100542;28;20050;-72
2022/09/08 05:11:26;;;;;;;36.60;26.55;;;19.40;99.90;;;;;;5098222;28;20487;-72
2022/09/08 05:13:53;;;;;;;31.58;26.08;;;19.50;99.90;;;;;;5131241;27;20088;-74
2022/09/08 05:16:21;;;;;;;37.70;29.67;;;19.40;99.90;;;;;;5114606;27;20040;-72
2022/09/08 05:18:50;;;;;;;37.00;29.77;;;19.60;99.90;;;;;;5096564;28;20043;-73
2022/09/08 05:21:18;;;;;;;35.42;26.13;;;19.30;99.90;;;;;;5095334;28;20551;-73
2022/09/08 05:23:45;;;;;;;35.45;28.70;;;19.30;99.90;;;;;;5100481;28;20491;-71
2022/09/08 05:26:14;;;;;;;34.15;29.17;;;19.30;99.90;;;;;;5103538;27;20058;-73
2022/09/08 05:28:44;;;;;;;37.90;29.23;;;19.40;99.90;;;;;;5121011;27;20039;-73
2022/09/08 05:31:14;;;;;;;42.45;31.05;;;19.60;99.90;;;;;;5099230;27;20470;-73
2022/09/08 05:33:41;;;;;;;33.83;28.33;;;19.40;99.90;;;;;;5113628;27;20486;-73
2022/09/08 05:36:13;;;;;;;30.80;26.55;;;19.50;99.90;;;;;;5095961;28;20502;-73
2022/09/08 05:38:40;;;;;;;39.08;30.17;;;19.60;99.90;;;;;;5113391;28;20089;-73
2022/09/08 05:41:09;;;;;;;31.77;27.20;;;19.50;99.90;;;;;;5114865;27;20482;-73
2022/09/08 05:43:36;;;;;;;34.70;29.05;;;19.50;99.90;;;;;;5114501;28;20044;-73
2022/09/08 05:46:05;;;;;;;32.97;24.70;;;19.30;99.90;;;;;;5097722;28;20039;-72
2022/09/08 05:48:32;;;;;;;34.42;28.33;;;19.30;99.90;;;;;;5108945;27;20054;-72
2022/09/08 05:51:00;;;;;;;33.72;27.35;;;19.30;99.90;;;;;;5115143;27;20051;-72
2022/09/08 05:53:27;;;;;;;34.63;29.35;;;19.30;99.90;;;;;;5106404;27;20043;-72
2022/09/08 05:55:59;;;;;;;37.13;28.27;;;19.20;99.90;;;;;;5100899;28;20135;-72
2022/09/08 05:58:27;;;;;;;34.15;28.33;;;19.20;99.90;;;;;;5098350;27;20104;-73
2022/09/08 06:00:56;;;;;;;33.15;26.58;;;19.20;99.90;;;;;;5112678;27;20040;-72
2022/09/08 06:03:25;;;;;;;33.28;27.67;;;19.20;99.90;;;;;;5086063;28;20085;-72
2022/09/08 06:05:52;;;;;;;38.00;28.52;;;19.20;99.90;;;;;;5117752;27;20050;-72
2022/09/08 06:08:20;;;;;;;38.17;29.48;;;19.20;99.90;;;;;;5101119;28;20055;-71
2022/09/08 06:10:50;;;;;;;38.78;29.77;;;19.10;99.90;;;;;;5103579;28;20043;-73
2022/09/08 06:13:17;;;;;;;39.45;30.40;;;19.00;99.90;;;;;;5098405;28;20120;-73
2022/09/08 06:15:44;;;;;;;39.60;30.17;;;19.00;99.90;;;;;;5112362;27;20554;-73
2022/09/08 06:18:11;;;;;;;36.58;29.33;;;18.90;99.90;;;;;;5116251;27;20108;-73
2022/09/08 06:20:39;;;;;;;34.10;27.40;;;18.90;99.90;;;;;;5134908;27;20051;-73
2022/09/08 06:23:06;;;;;;;35.33;28.15;;;18.90;99.90;;;;;;5116626;27;20444;-72
2022/09/08 06:25:39;;;;;;;35.08;28.75;;;18.90;99.90;;;;;;5117361;27;20055;-73
2022/09/08 06:28:23;;;;;;;33.75;27.67;;;18.90;99.90;;;;;;5134971;27;20055;-73
2022/09/08 06:30:51;;;;;;;35.88;28.20;;;18.80;99.90;;;;;;5134325;27;20047;-73
2022/09/08 06:33:24;;;;;;;38.85;29.88;;;18.70;99.90;;;;;;5134127;27;20533;-73
2022/09/08 06:36:00;;;;;;;36.20;29.27;;;18.70;99.90;;;;;;5106267;27;20468;-73
2022/09/08 06:38:33;;;;;;;34.97;28.67;;;18.60;99.90;;;;;;5134320;27;20047;-73
2022/09/08 06:41:09;;;;;;;37.72;31.15;;;18.50;99.90;;;;;;5116262;27;20058;-73
2022/09/08 06:43:39;;;;;;;40.00;31.90;;;18.40;99.90;;;;;;5134583;27;20088;-72
2022/09/08 06:46:13;;;;;;;41.50;32.28;;;18.30;99.90;;;;;;5113251;27;20043;-74
2022/09/08 06:48:40;;;;;;;40.55;32.65;;;18.20;99.90;;;;;;5115863;27;20047;-73
2022/09/08 06:51:17;;;;;;;39.92;32.58;;;18.10;99.90;;;;;;5133851;27;20448;-73
2022/09/08 06:53:51;;;;;;;42.60;33.53;;;18.00;99.90;;;;;;5134744;27;20043;-73
2022/09/08 06:56:30;;;;;;;43.65;33.05;;;17.90;99.90;;;;;;5100757;28;20051;-73
2022/09/08 06:59:01;;;;;;;42.05;32.55;;;17.90;99.90;;;;;;5098314;27;20047;-73
2022/09/08 07:01:39;;;;;;;43.67;32.67;;;17.80;99.90;;;;;;5117688;27;20051;-73
2022/09/08 07:04:18;;;;;;;44.60;34.47;;;17.90;99.90;;;;;;5113919;28;20050;-74
2022/09/08 07:06:55;;;;;;;45.13;36.17;;;17.80;99.90;;;;;;5094199;28;20047;-74
2022/09/08 07:09:28;;;;;;;43.92;33.72;;;17.90;99.90;;;;;;5095490;28;20556;-74
2022/09/08 07:12:08;;;;;;;44.03;34.80;;;17.80;99.90;;;;;;5094532;28;20100;-74
2022/09/08 07:14:51;;;;;;;46.00;35.25;;;17.80;99.90;;;;;;5095388;28;20521;-74
2022/09/08 07:17:22;;;;;;;43.50;34.45;;;17.80;99.90;;;;;;5111911;28;20047;-73
2022/09/08 07:19:50;;;;;;;48.22;36.17;;;17.70;99.90;;;;;;5112093;28;20059;-75
2022/09/08 07:22:38;;;;;;;48.40;36.20;;;17.70;99.90;;;;;;5095095;28;20081;-74
2022/09/08 07:25:22;;;;;;;49.25;36.92;;;17.70;99.90;;;;;;5096640;28;20052;-74
2022/09/08 07:27:54;;;;;;;49.50;36.70;;;17.60;99.90;;;;;;5120017;27;20059;-74
2022/09/08 07:30:21;;;;;;;47.13;36.75;;;17.50;99.90;;;;;;5104081;28;20056;-72
2022/09/08 07:32:52;;;;;;;45.03;36.30;;;17.40;99.90;;;;;;5094037;28;20052;-74
2022/09/08 07:35:26;;;;;;;46.30;35.85;;;17.40;99.90;;;;;;5108527;28;20056;-73
2022/09/08 07:37:58;;;;;;;49.00;36.47;;;17.40;99.90;;;;;;5094181;28;20070;-72
2022/09/08 07:40:39;;;;;;;51.13;37.75;;;17.30;99.90;;;;;;5092873;28;20138;-75
2022/09/08 07:43:10;;;;;;;49.05;38.33;;;17.30;99.90;;;;;;5103576;28;20058;-74
2022/09/08 07:45:43;;;;;;;49.90;37.60;;;17.30;99.90;;;;;;5114440;27;20549;-74
2022/09/08 07:48:21;;;;;;;50.08;38.22;;;17.30;99.90;;;;;;5113966;27;20055;-73
2022/09/08 07:51:01;;;;;;;43.65;34.88;;;17.30;99.90;;;;;;5132051;27;20047;-73
2022/09/08 07:53:44;;;;;;;50.33;37.45;;;17.20;99.90;;;;;;5114151;28;20039;-74
2022/09/08 07:56:15;;;;;;;50.00;37.08;;;17.20;99.90;;;;;;5100109;28;20051;-74
2022/09/08 07:58:47;;;;;;;54.88;39.92;;;17.20;99.90;;;;;;5112664;28;20486;-73
2022/09/08 08:01:28;;;;;;;48.45;37.67;;;17.20;99.90;;;;;;5094407;28;20540;-74
2022/09/08 08:04:03;;;;;;;54.08;37.63;;;17.10;99.90;;;;;;5112806;28;20047;-72
2022/09/08 08:06:38;;;;;;;48.65;35.22;;;17.00;99.90;;;;;;5093572;28;20177;-73
2022/09/08 08:09:15;;;;;;;49.80;35.95;;;17.00;99.90;;;;;;5093935;28;20134;-74
2022/09/08 08:11:51;;;;;;;50.08;35.63;;;17.00;99.90;;;;;;5112648;28;20048;-75
2022/09/08 08:14:27;;;;;;;49.63;36.03;;;17.00;99.90;;;;;;5094378;28;20540;-74
2022/09/08 08:17:04;;;;;;;46.75;34.40;;;16.90;99.90;;;;;;5093113;28;20499;-73
2022/09/08 08:19:52;;;;;;;43.47;31.33;;;16.90;99.90;;;;;;5093666;28;20044;-74
2022/09/08 08:22:28;;;;;;;45.60;32.63;;;16.90;99.90;;;;;;5111201;28;20433;-74
2022/09/08 08:25:01;;;;;;;44.38;31.80;;;17.00;99.90;;;;;;5112509;28;20055;-73
2022/09/08 08:27:34;;;;;;;45.63;32.63;;;17.00;99.90;;;;;;5104860;28;20059;-73
2022/09/08 08:30:19;;;;;;;44.53;33.38;;;17.00;99.90;;;;;;5113765;28;20055;-74
2022/09/08 08:32:53;;;;;;;35.38;26.08;;;17.00;99.90;;;;;;5132736;28;20383;-73
2022/09/08 08:35:26;;;;;;;38.55;28.67;;;17.00;99.90;;;;;;5095004;28;20122;-73
2022/09/08 08:37:54;;;;;;;35.30;26.80;;;17.00;99.90;;;;;;5093677;28;20495;-74
2022/09/08 08:40:51;;;;;;;36.95;27.90;;;17.10;99.90;;;;;;5111989;28;20523;-74
2022/09/08 08:43:35;;;;;;;35.85;25.73;;;17.10;99.90;;;;;;5112181;28;20058;-74
2022/09/08 08:46:20;;;;;;;35.47;26.30;;;17.10;99.90;;;;;;5094505;28;20051;-74
2022/09/08 08:49:12;;;;;;;35.15;25.88;;;17.20;99.90;;;;;;5094095;28;20051;-74
2022/09/08 08:52:03;;;;;;;32.92;25.45;;;17.20;99.90;;;;;;5093701;28;20059;-74
2022/09/08 08:55:04;;;;;;;33.47;26.88;;;17.30;99.90;;;;;;5112381;28;20123;-74
2022/09/08 08:57:52;;;;;;;29.02;23.08;;;17.40;99.90;;;;;;5115644;28;20054;-77
2022/09/08 09:00:21;;;;;;;32.42;24.35;;;17.40;99.90;;;;;;5097967;28;20059;-74
2022/09/08 09:03:16;;;;;;;33.07;26.77;;;17.50;99.90;;;;;;5115421;28;20051;-74
2022/09/08 09:06:20;;;;;;;29.40;23.92;;;17.50;99.90;;;;;;5115324;28;20559;-74
2022/09/08 09:09:15;;;;;;;29.90;24.15;;;17.50;99.90;;;;;;5025655;28;20060;-73
2022/09/08 09:12:12;;;;;;;31.83;26.05;;;17.50;99.90;;;;;;5094661;28;20584;-75
2022/09/08 09:14:58;;;;;;;31.02;24.17;;;17.50;99.90;;;;;;5097657;28;20056;-74
2022/09/08 09:17:48;;;;;;;30.65;24.52;;;17.60;99.90;;;;;;5105268;28;20372;-74
2022/09/08 09:20:38;;;;;;;30.13;24.05;;;17.60;99.90;;;;;;5113392;28;20096;-74
2022/09/08 09:23:14;;;;;;;30.63;22.67;;;17.60;99.90;;;;;;5114275;28;20059;-75
2022/09/08 09:25:52;;;;;;;27.65;22.15;;;17.70;99.90;;;;;;5113947;28;20043;-74
2022/09/08 09:28:46;;;;;;;31.70;22.52;;;17.80;99.90;;;;;;5133505;27;20059;-74
2022/09/08 09:31:45;;;;;;;26.98;20.73;;;17.90;99.90;;;;;;5138112;27;20407;-73
2022/09/08 09:34:30;;;;;;;26.55;20.50;;;18.00;99.90;;;;;;5100414;28;20065;-73
2022/09/08 09:37:16;;;;;;;21.45;17.13;;;18.00;99.90;;;;;;5126882;28;20047;-74
2022/09/08 09:39:59;;;;;;;19.70;16.63;;;18.10;99.90;;;;;;5114061;28;20104;-74
2022/09/08 09:42:52;;;;;;;21.13;17.70;;;18.20;99.90;;;;;;5115468;28;20532;-76
2022/09/08 09:45:31;;;;;;;20.42;16.45;;;18.20;99.90;;;;;;5107631;28;20380;-75
2022/09/08 09:48:29;;;;;;;21.98;17.52;;;18.20;99.90;;;;;;5114969;28;20051;-74
2022/09/08 09:51:08;;;;;;;21.13;17.02;;;18.10;99.90;;;;;;5114615;28;20105;-74
2022/09/08 09:53:51;;;;;;;20.40;16.30;;;18.10;99.90;;;;;;5113328;28;20507;-74
2022/09/08 09:56:52;;;;;;;15.63;13.35;;;18.20;99.90;;;;;;5115681;28;20518;-73
2022/09/08 09:59:48;;;;;;;15.15;13.05;;;18.20;99.90;;;;;;5046850;28;20052;-72
2022/09/08 10:02:46;;;;;;;15.45;12.85;;;18.30;99.90;;;;;;5096989;28;20499;-75
2022/09/08 10:05:44;;;;;;;14.95;11.85;;;18.40;99.90;;;;;;5116003;28;20044;-74
2022/09/08 10:09:00;;;;;;;15.02;11.18;;;18.40;99.90;;;;;;5096350;28;20665;-73
2022/09/08 10:12:21;;;;;;;13.55;11.15;;;18.50;99.90;;;;;;5015715;28;20107;-74
2022/09/08 10:15:09;;;;;;;;;;;18.40;99.90;;;;;;5028177;28;20045;-74
2022/09/08 10:18:22;;;;;;;12.02;10.55;;;18.40;99.90;;;;;;5022463;28;19929;-73
2022/09/08 10:21:07;;;;;;;12.25;10.57;;;18.40;99.90;;;;;;5088382;28;20108;-74
2022/09/08 10:24:24;;;;;;;12.50;10.43;;;18.50;99.90;;;;;;5096230;28;20062;-74
2022/09/08 10:27:33;;;;;;;8.77;7.38;;;18.50;99.90;;;;;;5113920;28;20093;-74
2022/09/08 10:30:48;;;;;;;6.97;6.20;;;18.40;99.90;;;;;;5113989;28;20128;-74
2022/09/08 10:33:39;;;;;;;8.93;7.30;;;18.40;99.90;;;;;;5113086;27;20093;-73
2022/09/08 10:36:09;;;;;;;20.48;6.90;;;18.40;99.90;;;;;;5108312;28;20452;-73
2022/09/08 10:38:52;;;;;;;8.60;6.93;;;18.40;99.90;;;;;;5095267;27;20055;-72
2022/09/08 10:41:47;;;;;;;8.15;7.20;;;18.30;99.90;;;;;;5095745;28;20051;-73
2022/09/08 10:44:27;;;;;;;7.55;5.57;;;18.30;99.90;;;;;;5113919;28;20552;-72
2022/09/08 10:47:39;;;;;;;8.43;6.15;;;18.30;99.90;;;;;;5114066;28;20400;-73
2022/09/08 10:50:19;;;;;;;8.73;4.97;;;18.30;99.90;;;;;;5048016;28;20056;-72
2022/09/08 10:53:23;;;;;;;7.80;5.05;;;18.20;99.90;;;;;;5105822;27;20047;-73
2022/09/08 10:56:05;;;;;;;5.95;4.22;;;18.10;99.90;;;;;;5123305;27;20219;-72
2022/09/08 10:59:10;;;;;;;6.70;4.20;;;18.10;99.90;;;;;;5095320;28;20051;-73
2022/09/08 11:02:12;;;;;;;5.88;3.85;;;18.10;99.90;;;;;;5095318;28;20047;-73
2022/09/08 11:05:06;;;;;;;4.88;3.35;;;18.00;99.90;;;;;;5084049;28;20100;-73
2022/09/08 11:08:18;;;;;;;4.40;3.20;;;18.00;99.90;;;;;;5111637;28;20051;-73
2022/09/08 11:11:12;;;;;;;4.22;2.70;;;17.90;99.90;;;;;;5036302;28;20044;-73
2022/09/08 11:13:44;;;;;;;4.85;3.30;;;17.80;99.90;;;;;;5095617;28;20133;-73
2022/09/08 11:16:39;;;;;;;5.05;3.17;;;17.80;99.90;;;;;;5095084;28;20054;-73
2022/09/08 11:19:39;;;;;;;5.43;3.30;;;17.70;99.90;;;;;;5095144;28;20081;-73
2022/09/08 11:22:32;;;;;;;4.72;3.50;;;17.70;99.90;;;;;;5113185;28;20058;-72
2022/09/08 11:25:13;;;;;;;4.97;3.33;;;17.70;99.90;;;;;;5094159;28;20548;-73
2022/09/08 11:27:49;;;;;;;4.60;2.70;;;17.70;99.90;;;;;;5106357;27;20600;-73
2022/09/08 11:30:20;;;;;;;4.43;3.25;;;17.80;99.90;;;;;;5115075;27;20051;-72
2022/09/08 11:33:09;;;;;;;3.53;2.70;;;17.70;99.90;;;;;;5133126;27;20383;-73
2022/09/08 11:35:53;;;;;;;4.22;2.65;;;17.70;99.90;;;;;;5113707;28;20043;-72
2022/09/08 11:38:38;;;;;;;3.72;2.30;;;17.70;99.90;;;;;;5107482;28;20059;-73
2022/09/08 11:41:40;;;;;;;3.17;1.88;;;17.70;99.90;;;;;;5129206;28;20214;-73
2022/09/08 11:44:21;;;;;;;4.50;1.80;;;17.70;99.90;;;;;;5115935;28;20411;-73
2022/09/08 11:47:10;;;;;;;3.55;1.60;;;17.60;99.90;;;;;;5112030;28;20059;-74
2022/09/08 11:50:04;;;;;;;3.53;2.03;;;17.60;99.90;;;;;;5094042;28;20092;-73
2022/09/08 11:52:56;;;;;;;2.65;2.05;;;17.60;99.90;;;;;;5111768;28;20055;-73
2022/09/08 11:55:54;;;;;;;3.58;1.85;;;17.60;99.90;;;;;;5107193;28;20509;-73
2022/09/08 11:58:31;;;;;;;3.45;1.98;;;17.60;99.90;;;;;;5094882;28;20051;-72
2022/09/08 12:01:11;;;;;;;4.93;2.10;;;17.50;99.90;;;;;;5094120;28;20059;-72
2022/09/08 12:04:12;;;;;;;5.45;2.20;;;17.50;99.90;;;;;;5111813;28;20108;-73
2022/09/08 12:07:17;;;;;;;3.97;2.10;;;17.50;99.90;;;;;;5112067;28;20062;-73
2022/09/08 12:10:01;;;;;;;3.83;1.90;;;17.40;99.90;;;;;;5029993;28;20508;-72
2022/09/08 12:12:49;;;;;;;2.80;1.67;;;17.40;99.90;;;;;;5111704;28;20495;-72
2022/09/08 12:15:45;;;;;;;4.47;1.95;;;17.40;99.90;;;;;;5111231;28;20104;-73
2022/09/08 12:18:27;;;;;;;3.80;2.08;;;17.40;99.90;;;;;;5114477;28;20054;-73
2022/09/08 12:21:21;;;;;;;5.45;2.15;;;17.50;99.90;;;;;;5121199;28;20518;-73
2022/09/08 12:23:50;;;;;;;4.55;2.30;;;17.60;99.90;;;;;;5096711;28;20048;-73
2022/09/08 12:26:40;;;;;;;2.80;2.13;;;17.60;99.90;;;;;;5115071;28;20050;-73
2022/09/08 12:29:41;;;;;;;3.92;2.42;;;17.70;99.90;;;;;;5132825;27;20047;-73
2022/09/08 12:32:34;;;;;;;3.60;2.83;;;17.70;99.90;;;;;;5023627;28;20451;-73
2022/09/08 12:35:23;;;;;;;4.95;2.42;;;17.70;99.90;;;;;;5130753;27;20506;-72
2022/09/08 12:38:12;;;;;;;4.15;2.40;;;17.80;99.90;;;;;;5098551;28;20100;-72
2022/09/08 12:41:09;;;;;;;3.45;2.38;;;17.90;99.90;;;;;;5094774;28;20051;-72
2022/09/08 12:43:41;;;;;;;6.10;2.70;;;17.90;99.90;;;;;;5096904;27;20059;-71
2022/09/08 12:46:24;;;;;;;5.43;2.80;;;18.00;99.90;;;;;;5098455;28;20380;-73
2022/09/08 12:48:56;;;;;;;8.02;3.00;;;18.10;99.90;;;;;;5098315;28;20055;-73
2022/09/08 12:51:32;;;;;;;4.85;2.80;;;18.10;99.90;;;;;;5115909;28;20063;-73
2022/09/08 12:54:33;;;;;;;4.35;2.38;;;18.10;99.90;;;;;;5115881;28;20051;-73
2022/09/08 12:57:46;;;;;;;5.47;2.72;;;18.10;99.90;;;;;;5115498;28;20776;-73
2022/09/08 13:00:14;;;;;;;3.58;2.45;;;18.10;99.90;;;;;;5116119;28;20555;-73
2022/09/08 13:03:19;;;;;;;4.22;2.85;;;18.10;99.90;;;;;;5098127;28;20058;-72
2022/09/08 13:06:00;;;;;;;3.95;2.80;;;18.10;99.90;;;;;;5098090;28;20052;-72
2022/09/08 13:08:44;;;;;;;5.80;3.65;;;18.10;99.90;;;;;;5100924;27;20055;-73
2022/09/08 13:11:20;;;;;;;4.45;3.28;;;18.10;99.90;;;;;;5136279;27;20069;-73
2022/09/08 13:13:48;;;;;;;4.25;3.15;;;18.10;99.90;;;;;;5136353;27;20500;-73
2022/09/08 13:16:27;;;;;;;5.80;3.30;;;18.10;99.90;;;;;;5118201;27;20130;-73
2022/09/08 13:19:10;;;;;;;5.60;3.40;;;18.10;99.90;;;;;;5117546;27;20097;-72
2022/09/08 13:22:03;;;;;;;5.03;3.40;;;18.10;99.90;;;;;;5117934;27;20054;-73
2022/09/08 13:24:41;;;;;;;7.18;4.18;;;18.10;99.90;;;;;;5126854;27;20043;-72